Latest Weather Observations for Cooma Airport

IDN60801

Issued at 10:33 am EDT Monday 22 December 2014 (issued every 30 minutes, with the page automatically refreshed every 10 minutes)

About weather observations | Map of weather stations | Latest weather observations for NSW | Other Formats
Station Details ID: 070217 Name: COOMA AIRPORT AWS Lat: -36.29 Lon: 148.97 Height: 930.0 m
Data from the previous 72 hours. | See also: Recent months for locations in New South Wales
Date/Time
EDT
Temp
°C
App
Temp
°C
Dew
Point
Rel
Hum
%
Delta-T
°C
Wind Press
QNH
hPa
Press
MSL
hPa
Rain
since 9 am
mm
Dir
 
Spd
km/h
Gust
km/h
Spd
kts
Gust
kts
22/10:30am 24.1 23.1 15.6 59 5.3 NE 15 20 8 11 1018.3 1015.0 0.0
22/10:00am 22.1 20.9 15.0 64 4.4 NE 15 19 8 10 1018.5 1015.2 0.0
22/09:30am 20.9 20.4 15.9 73 3.1 NE 13 17 7 9 1018.7 1015.5 0.0
22/08:30am 18.1 17.0 15.4 84 1.6 NE 15 19 8 10 1018.8 1015.6 0.0
22/08:00am 16.5 16.2 15.4 93 0.7 NE 11 13 6 7 1018.7 1015.5 0.0
22/07:38am 14.9 14.7 14.7 99 0.1 NE 9 11 5 6 1018.6 1015.3 0.0
22/07:33am 14.6 14.8 14.6 100 0.0 NE 7 11 4 6 1018.6 1015.3 0.0
22/07:30am 14.4 14.7 14.4 100 0.0 NE 6 9 3 5 1018.5 1015.2 0.0
22/07:00am 11.8 11.0 11.8 100 0.0 NNE 7 9 4 5 1018.4 1015.1 0.0
22/06:30am 9.9 8.6 9.8 99 0.1 NNE 7 9 4 5 1018.2 1014.9 0.0
22/06:18am 9.7 9.3 9.6 99 0.1 NNE 2 7 1 4 1018.2 1014.9 0.0
22/06:00am 9.5 8.3 9.4 99 0.1 NNE 6 7 3 4 1018.1 1014.8 0.0
22/05:57am 9.5 8.6 9.4 99 0.1 NNE 4 7 2 4 1018.1 1014.8 0.0
22/05:53am 9.1 8.5 8.8 98 0.2 N 2 6 1 3 1018.1 1014.8 0.0
22/05:30am 9.3 9.1 9.0 98 0.2 CALM 0 0 0 0 1018.0 1014.7 0.0
22/05:00am 10.3 9.0 10.1 99 0.1 NNE 7 9 4 5 1017.5 1014.2 0.0
22/04:51am 11.1 10.1 11.1 100 0.0 N 7 9 4 5 1017.5 1014.2 0.0
22/04:39am 10.0 9.3 9.9 99 0.1 N 4 9 2 5 1017.4 1014.1 0.0
22/04:35am 10.2 9.9 10.0 99 0.1 NNE 2 7 1 4 1017.4 1014.1 0.0
22/04:30am 9.6 9.5 9.5 99 0.1 CALM 0 0 0 0 1017.4 1014.1 0.0
22/04:12am 9.6 9.5 9.5 99 0.1 CALM 0 0 0 0 1017.4 1014.1 0.0
22/04:00am 9.8 8.6 9.5 98 0.2 N 6 7 3 4 1017.5 1014.2 0.0
22/03:30am 10.3 9.6 10.1 99 0.1 N 4 6 2 3 1017.6 1014.3 0.0
22/03:00am 10.7 10.9 10.4 98 0.2 CALM 0 0 0 0 1017.8 1014.4 0.0
22/02:30am 10.6 10.7 10.1 97 0.3 CALM 0 0 0 0 1018.0 1014.7 0.0
22/02:00am 11.4 11.7 10.9 97 0.3 CALM 0 0 0 0 1018.2 1014.9 0.0
22/01:30am 11.7 12.0 10.9 95 0.4 CALM 0 0 0 0 1018.5 1015.2 0.0
22/01:00am 12.7 13.1 12.5 99 0.1 S 2 6 1 3 1018.7 1015.5 0.0
22/12:53am 12.2 11.7 11.9 98 0.2 S 6 7 3 4 1018.7 1015.5 0.0
22/12:35am 12.2 11.5 11.4 95 0.4 SSW 6 11 3 6 1018.7 1015.5 0.0
22/12:30am 12.2 12.1 10.9 92 0.7 WSW 2 7 1 4 1018.7 1015.5 0.0
22/12:19am 13.1 12.2 11.3 89 1.0 SSW 7 9 4 5 1018.8 1015.6 0.0
22/12:00am 15.1 14.5 13.5 90 0.9 NNW 9 11 5 6 1018.6 1015.3 0.0
 
Date/Time
EDT
Temp
°C
App
Temp
°C
Dew
Point
Rel
Hum
%
Delta-T
°C
Wind Press
QNH
hPa
Press
MSL
hPa
Rain
since 9 am
mm
Dir
 
Spd
km/h
Gust
km/h
Spd
kts
Gust
kts
21/11:30pm 15.1 14.7 14.0 93 0.6 N 9 11 5 6 1018.7 1015.5 0.0
21/11:00pm 14.9 14.0 13.6 92 0.8 NNE 11 13 6 7 1018.6 1015.3 0.0
21/10:30pm 15.6 14.1 14.1 91 0.9 NNE 15 17 8 9 1019.0 1015.7 0.0
21/10:00pm 16.2 15.5 14.4 89 1.1 NE 11 15 6 8 1018.7 1015.5 0.0
21/09:30pm 16.6 15.5 14.2 86 1.4 NNE 13 19 7 10 1018.7 1015.5 0.0
21/09:00pm 17.8 16.0 14.5 81 2.0 NE 17 20 9 11 1018.2 1014.9 0.0
21/08:30pm 18.9 17.2 14.6 76 2.6 NE 17 20 9 11 1017.9 1014.6 0.0
21/08:00pm 20.3 18.6 14.7 70 3.4 NE 17 26 9 14 1017.6 1014.3 0.0
21/07:30pm 23.8 21.9 6.6 33 9.3 SW 6 9 3 5 1017.1 1013.8 0.0
21/07:00pm 25.4 22.8 6.1 29 10.4 WSW 9 17 5 9 1016.7 1013.3 0.0
21/06:30pm 25.8 23.0 6.9 30 10.4 SW 11 17 6 9 1016.4 1013.1 0.0
21/05:30pm 26.0 21.6 6.6 29 10.6 WSW 19 32 10 17 1016.3 1013.0 0.0
21/05:00pm 26.3 21.7 5.8 27 11.1 WSW 19 30 10 16 1016.4 1013.1 0.0
21/04:30pm 25.9 22.9 7.5 31 10.2 SW 13 19 7 10 1016.7 1013.3 0.0
21/04:00pm 24.7 20.9 6.0 30 10.0 WSW 15 26 8 14 1016.9 1013.6 0.0
21/03:30pm 26.7 23.4 9.5 34 9.9 WNW 17 24 9 13 1016.7 1013.3 0.0
21/03:00pm 26.8 23.4 9.2 33 10.1 WNW 17 26 9 14 1017.0 1013.7 0.0
21/02:30pm 26.4 22.7 7.9 31 10.3 W 17 30 9 16 1017.0 1013.7 0.0
21/02:00pm 26.6 22.6 8.1 31 10.4 WSW 19 33 10 18 1017.0 1013.7 0.0
21/01:30pm 25.8 21.5 6.9 30 10.4 WSW 19 32 10 17 1017.2 1013.9 0.0
21/01:00pm 25.4 21.3 6.1 29 10.4 W 17 32 9 17 1017.4 1014.1 0.0
21/12:30pm 24.9 21.9 6.1 30 10.1 WNW 11 20 6 11 1017.8 1014.4 0.0
21/12:00pm 23.8 22.9 10.5 43 7.7 ENE 6 11 3 6 1018.0 1014.7 0.0
21/11:30am 22.3 19.3 10.8 48 6.6 SE 17 24 9 13 1018.3 1015.0 0.0
21/11:00am 22.7 20.4 12.9 54 5.9 ENE 17 24 9 13 1018.4 1015.1 0.0
21/10:30am 21.7 19.5 13.3 59 5.0 E 17 20 9 11 1018.6 1015.3 0.0
21/10:00am 20.9 18.4 13.4 62 4.5 NE 19 24 10 13 1018.5 1015.2 0.0
21/09:30am 19.1 17.0 13.7 71 3.2 NE 17 22 9 12 1018.7 1015.5 0.0
21/09:00am 17.1 14.8 14.0 82 1.8 NE 19 26 10 14 1018.7 1015.5 0.0
21/08:42am 15.4 13.2 14.4 94 0.6 NE 19 22 10 12 1019.0 1015.7 0.0
21/08:30am 14.1 11.7 13.9 99 0.1 NE 19 24 10 13 1018.8 1015.6 0.0
21/08:11am 12.7 9.4 12.7 100 0.0 NE 22 28 12 15 1018.7 1015.5 0.0
21/08:00am 12.1 8.6 12.1 100 0.0 NNE 22 26 12 14 1018.6 1015.3 0.0
21/07:44am 11.7 8.4 11.7 100 0.0 NNE 20 24 11 13 1018.7 1015.5 0.0
21/07:30am 11.6 8.5 11.6 100 0.0 NNE 19 20 10 11 1018.6 1015.3 0.0
21/07:00am 10.6 7.6 10.6 100 0.0 NE 17 20 9 11 1018.5 1015.2 0.0
21/06:30am 10.0 7.2 10.0 100 0.0 NNE 15 17 8 9 1018.4 1015.1 0.0
21/06:00am 10.3 8.0 10.3 100 0.0 NE 13 17 7 9 1018.4 1015.1 0.0
21/05:30am 10.4 8.1 10.4 100 0.0 NE 13 15 7 8 1018.2 1014.9 0.0
21/05:00am 9.3 6.7 9.2 99 0.1 NE 13 15 7 8 1018.2 1014.9 0.0
21/04:30am 7.9 4.9 7.8 99 0.0 NNE 13 13 7 7 1018.3 1015.0 0.0
21/04:00am 8.8 6.4 8.7 99 0.1 NNE 11 13 6 7 1018.3 1015.0 0.0
21/03:30am 9.0 7.1 8.9 99 0.1 N 9 11 5 6 1018.5 1015.2 0.0
21/03:00am 8.9 7.1 7.8 93 0.6 N 7 9 4 5 1018.6 1015.3 0.0
21/02:30am 10.4 8.8 10.2 99 0.1 N 9 9 5 5 1018.8 1015.6 0.0
21/02:00am 11.1 10.3 10.9 99 0.1 NE 6 11 3 6 1019.0 1015.7 0.0
21/01:30am 10.6 9.6 10.4 99 0.1 NNE 6 7 3 4 1019.3 1016.0 0.0
21/01:00am 9.9 8.8 9.8 99 0.1 NE 6 6 3 3 1019.2 1015.9 0.0
21/12:30am 9.7 9.3 9.6 99 0.1 N 2 7 1 4 1019.5 1016.2 0.0
21/12:00am 10.8 10.9 10.3 97 0.3 CALM 0 0 0 0 1019.7 1016.5 0.0
 
Date/Time
EDT
Temp
°C
App
Temp
°C
Dew
Point
Rel
Hum
%
Delta-T
°C
Wind Press
QNH
hPa
Press
MSL
hPa
Rain
since 9 am
mm
Dir
 
Spd
km/h
Gust
km/h
Spd
kts
Gust
kts
20/11:30pm 10.9 11.1 10.4 97 0.3 CALM 0 0 0 0 1019.8 1016.6 0.0
20/11:00pm 11.1 9.8 10.0 93 0.6 NNE 7 7 4 4 1019.9 1016.7 0.0
20/10:30pm 11.8 10.7 10.5 92 0.7 N 7 9 4 5 1019.9 1016.7 0.0
20/10:00pm 12.4 11.2 11.6 95 0.4 N 9 11 5 6 1019.9 1016.7 0.0
20/09:30pm 12.0 10.2 10.9 93 0.6 NNE 11 13 6 7 1019.6 1016.3 0.0
20/09:00pm 13.0 11.3 11.2 89 1.0 NE 11 15 6 8 1019.3 1016.0 0.0
20/08:30pm 14.2 11.9 11.9 86 1.3 NE 15 17 8 9 1019.0 1015.7 0.0
20/08:00pm 15.4 13.2 12.0 80 1.9 NNE 15 20 8 11 1018.6 1015.3 0.0
20/07:30pm 17.3 14.8 12.4 73 2.8 NE 17 20 9 11 1018.2 1014.9 0.0
20/07:00pm 18.4 16.1 11.9 66 3.7 ENE 15 20 8 11 1017.8 1014.4 0.0
20/06:30pm 19.9 16.6 9.5 51 5.8 SSE 17 24 9 13 1017.1 1013.8 0.0
20/06:00pm 20.4 17.3 8.7 47 6.4 SE 15 20 8 11 1016.8 1013.4 0.0
20/05:30pm 20.8 16.8 8.1 44 6.9 S 19 24 10 13 1016.5 1013.2 0.0
20/05:00pm 20.9 18.1 8.5 45 6.8 SSW 13 19 7 10 1016.5 1013.2 0.0
20/04:30pm 21.2 17.7 7.4 41 7.4 S 15 20 8 11 1016.4 1013.1 0.0
20/04:00pm 21.8 18.1 8.0 41 7.5 S 17 22 9 12 1016.7 1013.3 0.0
20/03:30pm 22.4 18.9 7.4 38 8.1 S 15 24 8 13 1016.7 1013.3 0.0
20/03:00pm 23.0 19.3 7.9 38 8.3 S 17 30 9 16 1016.9 1013.6 0.0
20/02:30pm 21.4 18.5 6.5 38 7.9 SSE 11 20 6 11 1017.1 1013.8 0.0
20/02:00pm 21.3 18.6 7.2 40 7.6 SW 11 17 6 9 1017.3 1014.0 0.0
20/01:30pm 21.0 16.9 6.2 38 7.8 S 17 28 9 15 1017.5 1014.2 0.0
20/01:00pm 20.7 17.8 8.0 44 6.9 SSW 13 24 7 13 1017.8 1014.4 0.0
20/12:30pm 19.7 17.2 8.1 47 6.3 SSE 11 19 6 10 1018.0 1014.7 0.0
20/12:00pm 18.8 15.7 7.3 47 6.1 S 13 20 7 11 1018.2 1014.9 0.0
20/11:30am 18.6 15.5 7.4 48 6.0 SSW 13 19 7 10 1018.3 1015.0 0.0
20/11:00am 18.0 15.9 6.5 47 6.0 WSW 7 17 4 9 1018.3 1015.0 0.0
20/10:30am 16.9 14.6 7.3 53 5.0 S 9 13 5 7 1018.2 1014.9 0.0
20/10:00am 15.9 14.7 7.9 59 4.2 E 4 9 2 5 1018.2 1014.9 0.0
20/09:30am 14.9 12.8 8.4 65 3.4 NE 9 13 5 7 1018.2 1014.9 0.0
20/09:00am 13.5 10.9 7.9 69 2.9 NE 11 17 6 9 1018.3 1015.0 0.0
20/08:30am 12.0 8.9 7.1 72 2.5 NE 13 17 7 9 1018.4 1015.1 0.0
20/08:00am 10.8 8.1 7.3 79 1.8 NE 11 17 6 9 1018.3 1015.0 0.0
20/07:30am 9.7 7.7 6.4 80 1.6 NE 6 11 3 6 1018.3 1015.0 0.0
20/07:00am 8.4 7.2 6.5 88 0.9 NNE 2 7 1 4 1018.3 1015.0 0.0
20/06:30am 6.7 5.8 6.1 96 0.3 CALM 0 4 0 2 1018.1 1014.8 0.0
20/06:00am 6.3 4.2 5.9 97 0.2 N 6 7 3 4 1018.0 1014.7 0.0
20/05:30am 6.6 5.8 6.5 99 0.0 CALM 0 0 0 0 1018.0 1014.7 0.0
20/05:00am 6.0 5.1 5.9 99 0.0 CALM 0 0 0 0 1017.9 1014.6 0.0
20/04:30am 5.3 3.5 5.2 99 0.0 NNE 4 9 2 5 1017.9 1014.6 0.0
20/04:00am 4.0 2.7 3.9 99 0.0 CALM 0 0 0 0 1017.6 1014.3 0.0
20/03:30am 3.6 2.1 2.9 95 0.3 CALM 0 0 0 0 1018.0 1014.7 0.0
20/03:00am 3.8 2.3 3.1 95 0.3 CALM 0 0 0 0 1018.1 1014.8 0.0
20/02:30am 4.1 2.6 3.2 94 0.4 CALM 0 0 0 0 1018.3 1015.0 0.0
20/02:00am 4.3 2.9 3.3 93 0.4 CALM 0 0 0 0 1018.6 1015.3 0.0
20/01:30am 4.7 3.0 4.0 95 0.3 WSW 2 7 1 4 1018.8 1015.6 0.0
20/01:00am 4.7 3.3 3.7 93 0.4 CALM 0 0 0 0 1019.2 1015.9 0.0
20/12:30am 6.3 5.1 4.6 89 0.8 CALM 0 0 0 0 1019.3 1016.0 0.0
20/12:00am 7.0 4.8 5.2 88 0.8 WSW 6 7 3 4 1019.3 1016.0 0.0
 
Date/Time
EDT
Temp
°C
App
Temp
°C
Dew
Point
Rel
Hum
%
Delta-T
°C
Wind Press
QNH
hPa
Press
MSL
hPa
Rain
since 9 am
mm
Dir
 
Spd
km/h
Gust
km/h
Spd
kts
Gust
kts
19/11:30pm 7.1 4.6 4.9 86 1.0 SSW 7 9 4 5 1019.3 1016.0 0.0
19/11:00pm 8.0 6.5 5.1 82 1.4 S 2 7 1 4 1019.5 1016.2 0.0
19/10:30pm 8.6 5.0 5.2 79 1.6 SE 13 17 7 9 1019.2 1015.9 0.0
19/10:00pm 9.0 6.2 5.2 77 1.8 ESE 9 17 5 9 1019.0 1015.7 0.0
19/09:30pm 9.6 6.4 5.2 74 2.1 SE 11 15 6 8 1018.7 1015.5 0.0
19/09:00pm 10.5 7.0 5.5 71 2.4 SSE 13 17 7 9 1018.2 1014.9 0.0
19/08:30pm 11.4 7.8 5.1 65 3.0 S 13 17 7 9 1017.6 1014.3 0.0
19/08:00pm 13.4 8.6 4.8 56 4.2 SSE 19 22 10 12 1017.2 1013.9 0.0
19/07:30pm 14.8 10.0 4.5 50 5.0 S 19 24 10 13 1016.5 1013.2 0.0
19/07:00pm 15.5 10.0 4.2 47 5.5 S 22 28 12 15 1015.9 1012.6 0.0
19/06:30pm 16.4 11.4 4.8 46 5.8 S 20 28 11 15 1015.5 1012.1 0.0
19/06:00pm 16.5 11.2 4.9 46 5.8 S 22 33 12 18 1015.1 1011.8 0.0
19/05:30pm 17.2 11.9 4.9 44 6.2 S 22 28 12 15 1014.9 1011.6 0.0
19/05:00pm 17.4 13.0 5.0 44 6.2 SSE 17 26 9 14 1014.6 1011.2 0.0
19/04:30pm 17.1 12.3 4.8 44 6.2 S 19 28 10 15 1014.5 1011.1 0.0
19/04:00pm 17.1 12.5 5.4 46 5.9 S 19 28 10 15 1014.4 1011.0 0.0
19/03:30pm 17.2 13.4 5.8 47 5.8 SSW 15 24 8 13 1014.4 1011.0 0.0
19/03:00pm 16.5 11.7 4.5 45 5.9 SSW 19 33 10 18 1014.5 1011.1 0.0
19/02:30pm 16.8 12.7 6.0 49 5.5 S 17 32 9 17 1014.5 1011.1 0.0
19/02:00pm 16.5 10.9 5.2 47 5.7 S 24 39 13 21 1014.6 1011.2 0.0
19/01:30pm 15.1 9.9 3.6 46 5.5 S 20 35 11 19 1014.7 1011.3 0.0
19/01:00pm 14.9 9.7 3.7 47 5.4 SSW 20 35 11 19 1014.8 1011.4 0.0
19/12:30pm 14.5 9.6 3.9 49 5.1 SSW 19 30 10 16 1014.8 1011.4 0.0
19/12:00pm 14.0 8.9 3.2 48 5.1 SSW 19 30 10 16 1014.9 1011.6 0.0
19/11:30am 12.6 8.3 3.0 52 4.5 SSW 15 32 8 17 1014.7 1011.3 0.0
19/11:00am 12.4 8.0 2.8 52 4.4 S 15 24 8 13 1014.8 1011.4 0.0

Other Formats:

Comma delimited format used in spreadsheet applications
http://www.bom.gov.au/fwo/IDN60801/IDN60801.94921.axf

JavaScript Object Notation format (JSON) in row-major order
http://www.bom.gov.au/fwo/IDN60801/IDN60801.94921.json